sensor_id;sensor_type;location;lat;lon;timestamp;noise_LAeq;noise_LA_min;noise_LA_max;noise_LA01;noise_LA95
41518;Laerm;27249;48.094;-1.690;2023-03-12T00:03:29;52.49;44.27;61.60;;
41518;Laerm;27249;48.094;-1.690;2023-03-12T00:05:54;51.57;43.86;60.80;;
41518;Laerm;27249;48.094;-1.690;2023-03-12T00:08:19;53.16;44.35;61.51;;
41518;Laerm;27249;48.094;-1.690;2023-03-12T00:10:44;52.37;43.81;64.79;;
41518;Laerm;27249;48.094;-1.690;2023-03-12T00:13:10;52.31;43.72;63.70;;
41518;Laerm;27249;48.094;-1.690;2023-03-12T00:15:41;50.45;43.68;59.81;;
41518;Laerm;27249;48.094;-1.690;2023-03-12T00:18:06;53.30;44.11;63.42;;
41518;Laerm;27249;48.094;-1.690;2023-03-12T00:20:32;53.43;44.15;64.37;;
41518;Laerm;27249;48.094;-1.690;2023-03-12T00:22:57;49.88;44.07;59.09;;
41518;Laerm;27249;48.094;-1.690;2023-03-12T00:25:22;51.61;43.39;61.27;;
41518;Laerm;27249;48.094;-1.690;2023-03-12T00:27:47;49.05;42.98;58.35;;
41518;Laerm;27249;48.094;-1.690;2023-03-12T00:30:13;52.54;43.49;66.50;;
41518;Laerm;27249;48.094;-1.690;2023-03-12T00:32:38;52.60;43.86;63.35;;
41518;Laerm;27249;48.094;-1.690;2023-03-12T00:35:04;53.09;42.41;67.81;;
41518;Laerm;27249;48.094;-1.690;2023-03-12T00:37:29;52.69;43.39;62.59;;
41518;Laerm;27249;48.094;-1.690;2023-03-12T00:39:56;51.89;44.43;59.22;;
41518;Laerm;27249;48.094;-1.690;2023-03-12T00:42:22;51.58;44.76;61.01;;
41518;Laerm;27249;48.094;-1.690;2023-03-12T00:44:47;50.73;43.97;62.79;;
41518;Laerm;27249;48.094;-1.690;2023-03-12T00:47:22;54.47;43.58;66.08;;
41518;Laerm;27249;48.094;-1.690;2023-03-12T00:49:48;54.04;44.80;62.49;;
41518;Laerm;27249;48.094;-1.690;2023-03-12T00:52:13;52.37;42.88;63.78;;
41518;Laerm;27249;48.094;-1.690;2023-03-12T00:54:38;49.67;43.29;58.67;;
41518;Laerm;27249;48.094;-1.690;2023-03-12T00:57:04;53.33;43.72;62.55;;
41518;Laerm;27249;48.094;-1.690;2023-03-12T00:59:29;53.81;42.82;63.12;;
41518;Laerm;27249;48.094;-1.690;2023-03-12T01:01:54;51.60;43.99;63.08;;
41518;Laerm;27249;48.094;-1.690;2023-03-12T01:04:20;51.04;43.04;61.02;;
41518;Laerm;27249;48.094;-1.690;2023-03-12T01:06:45;51.46;44.15;61.54;;
41518;Laerm;27249;48.094;-1.690;2023-03-12T01:09:10;52.25;44.31;64.49;;
41518;Laerm;27249;48.094;-1.690;2023-03-12T01:11:36;51.67;43.90;60.71;;
41518;Laerm;27249;48.094;-1.690;2023-03-12T01:14:02;53.26;43.63;64.22;;
41518;Laerm;27249;48.094;-1.690;2023-03-12T01:16:27;50.68;43.39;61.78;;
41518;Laerm;27249;48.094;-1.690;2023-03-12T01:18:54;52.77;43.14;63.84;;
41518;Laerm;27249;48.094;-1.690;2023-03-12T01:21:20;53.99;43.19;63.63;;
41518;Laerm;27249;48.094;-1.690;2023-03-12T01:23:45;52.98;42.65;67.09;;
41518;Laerm;27249;48.094;-1.690;2023-03-12T01:26:11;50.56;43.39;60.29;;
41518;Laerm;27249;48.094;-1.690;2023-03-12T01:28:36;53.41;42.93;65.71;;
41518;Laerm;27249;48.094;-1.690;2023-03-12T01:31:05;52.90;43.68;63.74;;
41518;Laerm;27249;48.094;-1.690;2023-03-12T01:33:30;47.39;42.93;57.46;;
41518;Laerm;27249;48.094;-1.690;2023-03-12T01:35:55;48.61;42.88;61.42;;
41518;Laerm;27249;48.094;-1.690;2023-03-12T01:38:21;51.81;43.34;60.84;;
41518;Laerm;27249;48.094;-1.690;2023-03-12T01:40:46;50.82;42.29;64.67;;
41518;Laerm;27249;48.094;-1.690;2023-03-12T01:48:31;50.81;42.71;62.95;;
41518;Laerm;27249;48.094;-1.690;2023-03-12T01:50:58;56.91;43.86;67.25;;
41518;Laerm;27249;48.094;-1.690;2023-03-12T01:53:23;51.68;41.38;66.68;;
41518;Laerm;27249;48.094;-1.690;2023-03-12T01:55:49;48.69;41.68;64.06;;
41518;Laerm;27249;48.094;-1.690;2023-03-12T01:58:15;53.54;41.14;68.45;;
41518;Laerm;27249;48.094;-1.690;2023-03-12T02:00:41;48.15;42.35;59.85;;
41518;Laerm;27249;48.094;-1.690;2023-03-12T02:03:06;50.04;42.09;62.58;;
41518;Laerm;27249;48.094;-1.690;2023-03-12T02:05:35;51.57;41.68;62.83;;
41518;Laerm;27249;48.094;-1.690;2023-03-12T02:08:07;51.01;40.89;63.96;;
41518;Laerm;27249;48.094;-1.690;2023-03-12T02:10:33;51.49;41.89;61.72;;
41518;Laerm;27249;48.094;-1.690;2023-03-12T02:12:58;46.64;42.59;54.57;;
41518;Laerm;27249;48.094;-1.690;2023-03-12T02:15:23;53.84;42.29;65.65;;
41518;Laerm;27249;48.094;-1.690;2023-03-12T02:17:48;50.96;43.29;61.49;;
41518;Laerm;27249;48.094;-1.690;2023-03-12T02:22:40;52.56;42.88;64.26;;
41518;Laerm;27249;48.094;-1.690;2023-03-12T02:25:21;49.49;43.19;57.13;;
41518;Laerm;27249;48.094;-1.690;2023-03-12T02:27:50;52.15;42.41;64.09;;
41518;Laerm;27249;48.094;-1.690;2023-03-12T02:30:16;53.72;42.98;63.13;;
41518;Laerm;27249;48.094;-1.690;2023-03-12T02:32:43;50.87;42.65;61.81;;
41518;Laerm;27249;48.094;-1.690;2023-03-12T02:35:09;51.02;43.09;61.52;;
41518;Laerm;27249;48.094;-1.690;2023-03-12T02:37:34;49.30;41.30;60.64;;
41518;Laerm;27249;48.094;-1.690;2023-03-12T02:40:12;48.52;41.81;56.64;;
41518;Laerm;27249;48.094;-1.690;2023-03-12T02:42:39;48.13;42.47;62.38;;
41518;Laerm;27249;48.094;-1.690;2023-03-12T02:45:04;46.99;42.76;59.93;;
41518;Laerm;27249;48.094;-1.690;2023-03-12T02:47:30;49.99;42.88;60.04;;
41518;Laerm;27249;48.094;-1.690;2023-03-12T02:49:55;51.91;41.61;61.53;;
41518;Laerm;27249;48.094;-1.690;2023-03-12T02:52:20;45.51;41.14;55.97;;
41518;Laerm;27249;48.094;-1.690;2023-03-12T02:54:45;44.11;41.30;51.44;;
41518;Laerm;27249;48.094;-1.690;2023-03-12T02:57:11;50.06;41.82;63.91;;
41518;Laerm;27249;48.094;-1.690;2023-03-12T02:59:36;49.78;41.61;62.38;;
41518;Laerm;27249;48.094;-1.690;2023-03-12T03:02:01;50.63;41.75;60.83;;
41518;Laerm;27249;48.094;-1.690;2023-03-12T03:04:29;45.25;41.22;58.10;;
41518;Laerm;27249;48.094;-1.690;2023-03-12T03:06:55;48.04;41.89;59.17;;
41518;Laerm;27249;48.094;-1.690;2023-03-12T03:09:21;47.74;42.16;62.19;;
41518;Laerm;27249;48.094;-1.690;2023-03-12T03:11:46;46.33;41.46;63.29;;
41518;Laerm;27249;48.094;-1.690;2023-03-12T03:14:12;47.49;41.82;58.09;;
41518;Laerm;27249;48.094;-1.690;2023-03-12T03:16:37;53.63;42.53;70.47;;
41518;Laerm;27249;48.094;-1.690;2023-03-12T03:19:03;50.16;42.35;62.53;;
41518;Laerm;27249;48.094;-1.690;2023-03-12T03:21:28;50.99;41.82;65.67;;
41518;Laerm;27249;48.094;-1.690;2023-03-12T03:23:53;49.11;42.59;61.18;;
41518;Laerm;27249;48.094;-1.690;2023-03-12T03:26:20;49.44;42.22;63.25;;
41518;Laerm;27249;48.094;-1.690;2023-03-12T03:28:45;48.23;42.53;59.56;;
41518;Laerm;27249;48.094;-1.690;2023-03-12T03:31:11;50.53;42.35;63.90;;
41518;Laerm;27249;48.094;-1.690;2023-03-12T03:33:37;48.10;42.16;62.27;;
41518;Laerm;27249;48.094;-1.690;2023-03-12T03:36:03;49.68;41.82;62.62;;
41518;Laerm;27249;48.094;-1.690;2023-03-12T03:38:29;51.45;42.22;65.24;;
41518;Laerm;27249;48.094;-1.690;2023-03-12T03:40:54;46.16;41.30;59.32;;
41518;Laerm;27249;48.094;-1.690;2023-03-12T03:43:20;46.70;40.98;58.11;;
41518;Laerm;27249;48.094;-1.690;2023-03-12T03:45:47;48.70;42.16;60.83;;
41518;Laerm;27249;48.094;-1.690;2023-03-12T03:48:13;53.35;42.59;66.72;;
41518;Laerm;27249;48.094;-1.690;2023-03-12T03:50:46;51.45;41.61;60.54;;
41518;Laerm;27249;48.094;-1.690;2023-03-12T03:53:12;50.10;41.46;62.06;;
41518;Laerm;27249;48.094;-1.690;2023-03-12T03:58:33;49.68;42.47;61.53;;
41518;Laerm;27249;48.094;-1.690;2023-03-12T04:00:58;52.83;41.61;66.65;;
41518;Laerm;27249;48.094;-1.690;2023-03-12T04:03:24;47.94;41.06;60.22;;
41518;Laerm;27249;48.094;-1.690;2023-03-12T04:05:53;50.05;41.38;64.63;;
41518;Laerm;27249;48.094;-1.690;2023-03-12T04:08:20;50.18;42.76;62.29;;
41518;Laerm;27249;48.094;-1.690;2023-03-12T04:10:45;48.33;42.71;57.62;;
41518;Laerm;27249;48.094;-1.690;2023-03-12T04:13:11;48.57;41.82;58.42;;
41518;Laerm;27249;48.094;-1.690;2023-03-12T04:15:36;49.00;41.38;61.61;;
41518;Laerm;27249;48.094;-1.690;2023-03-12T04:18:01;47.09;42.35;59.13;;
41518;Laerm;27249;48.094;-1.690;2023-03-12T04:20:26;54.87;42.64;69.52;;
41518;Laerm;27249;48.094;-1.690;2023-03-12T04:22:52;52.92;43.04;63.01;;
41518;Laerm;27249;48.094;-1.690;2023-03-12T04:25:17;46.10;42.47;57.13;;
41518;Laerm;27249;48.094;-1.690;2023-03-12T04:27:42;49.12;42.22;63.38;;
41518;Laerm;27249;48.094;-1.690;2023-03-12T04:30:07;48.70;41.82;59.83;;
41518;Laerm;27249;48.094;-1.690;2023-03-12T04:32:33;53.73;42.59;64.25;;
41518;Laerm;27249;48.094;-1.690;2023-03-12T04:34:58;50.73;42.22;60.83;;
41518;Laerm;27249;48.094;-1.690;2023-03-12T04:40:26;49.99;42.41;62.39;;
41518;Laerm;27249;48.094;-1.690;2023-03-12T04:42:52;48.66;42.29;59.49;;
41518;Laerm;27249;48.094;-1.690;2023-03-12T04:51:23;46.92;42.82;61.22;;
41518;Laerm;27249;48.094;-1.690;2023-03-12T04:56:45;51.03;42.47;60.65;;
41518;Laerm;27249;48.094;-1.690;2023-03-12T04:59:10;51.63;42.88;62.92;;
41518;Laerm;27249;48.094;-1.690;2023-03-12T05:01:35;49.48;42.65;61.03;;
41518;Laerm;27249;48.094;-1.690;2023-03-12T05:04:01;51.35;43.44;60.75;;
41518;Laerm;27249;48.094;-1.690;2023-03-12T05:06:26;47.01;42.22;61.22;;
41518;Laerm;27249;48.094;-1.690;2023-03-12T05:08:52;50.77;42.65;64.59;;
41518;Laerm;27249;48.094;-1.690;2023-03-12T05:11:17;48.29;42.53;62.26;;
41518;Laerm;27249;48.094;-1.690;2023-03-12T05:13:43;51.48;43.04;65.23;;
41518;Laerm;27249;48.094;-1.690;2023-03-12T05:16:08;46.15;42.88;56.06;;
41518;Laerm;27249;48.094;-1.690;2023-03-12T05:21:08;52.71;42.98;60.91;;
41518;Laerm;27249;48.094;-1.690;2023-03-12T05:23:35;53.77;43.24;64.19;;
41518;Laerm;27249;48.094;-1.690;2023-03-12T05:26:03;53.09;44.27;64.70;;
41518;Laerm;27249;48.094;-1.690;2023-03-12T05:31:22;52.75;43.54;66.30;;
41518;Laerm;27249;48.094;-1.690;2023-03-12T05:33:48;48.02;43.68;60.74;;
41518;Laerm;27249;48.094;-1.690;2023-03-12T05:36:13;53.93;44.31;67.63;;
41518;Laerm;27249;48.094;-1.690;2023-03-12T05:38:50;52.91;44.11;64.47;;
41518;Laerm;27249;48.094;-1.690;2023-03-12T05:41:17;50.46;43.63;64.77;;
41518;Laerm;27249;48.094;-1.690;2023-03-12T05:43:43;53.46;44.11;65.57;;
41518;Laerm;27249;48.094;-1.690;2023-03-12T05:46:08;51.64;43.90;63.77;;
41518;Laerm;27249;48.094;-1.690;2023-03-12T05:48:34;54.21;43.94;64.17;;
41518;Laerm;27249;48.094;-1.690;2023-03-12T05:50:59;51.09;43.44;64.79;;
41518;Laerm;27249;48.094;-1.690;2023-03-12T05:53:24;50.76;43.34;61.67;;
41518;Laerm;27249;48.094;-1.690;2023-03-12T05:55:49;55.32;44.15;65.69;;
41518;Laerm;27249;48.094;-1.690;2023-03-12T05:58:15;51.59;42.88;59.46;;
41518;Laerm;27249;48.094;-1.690;2023-03-12T06:00:40;54.27;43.29;70.15;;
41518;Laerm;27249;48.094;-1.690;2023-03-12T06:03:06;50.30;42.29;62.08;;
41518;Laerm;27249;48.094;-1.690;2023-03-12T06:05:32;51.10;42.47;62.48;;
41518;Laerm;27249;48.094;-1.690;2023-03-12T06:07:57;52.49;43.29;61.77;;
41518;Laerm;27249;48.094;-1.690;2023-03-12T06:10:22;51.46;43.09;62.51;;
41518;Laerm;27249;48.094;-1.690;2023-03-12T06:12:48;51.24;43.04;66.67;;
41518;Laerm;27249;48.094;-1.690;2023-03-12T06:15:13;53.22;43.29;64.47;;
41518;Laerm;27249;48.094;-1.690;2023-03-12T06:17:38;53.73;43.49;71.54;;
41518;Laerm;27249;48.094;-1.690;2023-03-12T06:20:04;49.57;42.98;60.80;;
41518;Laerm;27249;48.094;-1.690;2023-03-12T06:22:29;50.69;43.90;71.07;;
41518;Laerm;27249;48.094;-1.690;2023-03-12T06:24:54;51.46;43.29;62.83;;
41518;Laerm;27249;48.094;-1.690;2023-03-12T06:27:19;49.14;43.19;61.36;;
41518;Laerm;27249;48.094;-1.690;2023-03-12T06:29:45;53.13;43.54;65.84;;
41518;Laerm;27249;48.094;-1.690;2023-03-12T06:32:13;49.78;43.49;60.91;;
41518;Laerm;27249;48.094;-1.690;2023-03-12T06:34:38;49.29;43.72;63.03;;
41518;Laerm;27249;48.094;-1.690;2023-03-12T06:37:03;47.90;43.68;63.47;;
41518;Laerm;27249;48.094;-1.690;2023-03-12T06:39:29;52.02;43.58;72.72;;
41518;Laerm;27249;48.094;-1.690;2023-03-12T06:41:54;51.54;43.94;62.64;;
41518;Laerm;27249;48.094;-1.690;2023-03-12T06:44:20;53.07;43.86;72.42;;
41518;Laerm;27249;48.094;-1.690;2023-03-12T06:46:45;50.38;44.23;61.47;;
41518;Laerm;27249;48.094;-1.690;2023-03-12T06:49:10;49.86;44.23;62.91;;
41518;Laerm;27249;48.094;-1.690;2023-03-12T06:51:36;50.39;43.63;72.07;;
41518;Laerm;27249;48.094;-1.690;2023-03-12T06:54:01;52.98;44.15;69.30;;
41518;Laerm;27249;48.094;-1.690;2023-03-12T06:56:27;53.94;44.69;66.78;;
41518;Laerm;27249;48.094;-1.690;2023-03-12T06:58:52;52.46;43.54;62.97;;
41518;Laerm;27249;48.094;-1.690;2023-03-12T07:01:18;51.39;43.39;60.67;;
41518;Laerm;27249;48.094;-1.690;2023-03-12T07:03:43;51.27;43.24;59.74;;
41518;Laerm;27249;48.094;-1.690;2023-03-12T07:06:12;48.42;42.98;61.97;;
41518;Laerm;27249;48.094;-1.690;2023-03-12T07:08:38;55.02;44.11;66.45;;
41518;Laerm;27249;48.094;-1.690;2023-03-12T07:11:03;52.09;43.24;62.52;;
41518;Laerm;27249;48.094;-1.690;2023-03-12T07:13:28;52.85;42.98;64.83;;
41518;Laerm;27249;48.094;-1.690;2023-03-12T07:15:54;53.35;43.63;83.71;;
41518;Laerm;27249;48.094;-1.690;2023-03-12T07:18:19;49.15;43.49;64.83;;
41518;Laerm;27249;48.094;-1.690;2023-03-12T07:20:44;51.85;43.19;62.04;;
41518;Laerm;27249;48.094;-1.690;2023-03-12T07:23:11;49.24;43.14;60.03;;
41518;Laerm;27249;48.094;-1.690;2023-03-12T07:25:37;52.76;44.19;67.01;;
41518;Laerm;27249;48.094;-1.690;2023-03-12T07:28:03;60.15;43.94;84.53;;
41518;Laerm;27249;48.094;-1.690;2023-03-12T07:30:28;53.26;43.34;70.47;;
41518;Laerm;27249;48.094;-1.690;2023-03-12T07:32:57;50.47;43.90;60.24;;
41518;Laerm;27249;48.094;-1.690;2023-03-12T07:35:22;53.01;43.94;62.04;;
41518;Laerm;27249;48.094;-1.690;2023-03-12T07:37:48;49.62;43.94;61.96;;
41518;Laerm;27249;48.094;-1.690;2023-03-12T07:40:13;52.82;44.11;61.96;;
41518;Laerm;27249;48.094;-1.690;2023-03-12T07:42:38;48.76;44.03;61.64;;
41518;Laerm;27249;48.094;-1.690;2023-03-12T07:45:03;52.37;43.54;60.21;;
41518;Laerm;27249;48.094;-1.690;2023-03-12T07:47:31;53.14;44.35;64.94;;
41518;Laerm;27249;48.094;-1.690;2023-03-12T07:49:57;54.44;46.02;65.01;;
41518;Laerm;27249;48.094;-1.690;2023-03-12T07:52:22;52.99;44.23;62.06;;
41518;Laerm;27249;48.094;-1.690;2023-03-12T07:54:49;54.67;44.31;63.65;;
41518;Laerm;27249;48.094;-1.690;2023-03-12T07:57:16;53.20;45.07;68.37;;
41518;Laerm;27249;48.094;-1.690;2023-03-12T07:59:42;53.16;43.99;61.90;;
41518;Laerm;27249;48.094;-1.690;2023-03-12T08:02:08;53.69;44.19;65.10;;
41518;Laerm;27249;48.094;-1.690;2023-03-12T08:04:33;55.23;44.35;63.74;;
41518;Laerm;27249;48.094;-1.690;2023-03-12T08:06:59;53.64;43.86;63.30;;
41518;Laerm;27249;48.094;-1.690;2023-03-12T08:09:25;50.37;43.90;62.88;;
41518;Laerm;27249;48.094;-1.690;2023-03-12T08:11:51;54.99;44.39;65.20;;
41518;Laerm;27249;48.094;-1.690;2023-03-12T08:14:16;54.30;43.44;65.58;;
41518;Laerm;27249;48.094;-1.690;2023-03-12T08:16:41;54.42;45.04;67.87;;
41518;Laerm;27249;48.094;-1.690;2023-03-12T08:19:06;54.47;44.58;63.61;;
41518;Laerm;27249;48.094;-1.690;2023-03-12T08:21:32;51.88;43.54;67.43;;
41518;Laerm;27249;48.094;-1.690;2023-03-12T08:23:58;56.07;44.69;72.41;;
41518;Laerm;27249;48.094;-1.690;2023-03-12T08:26:24;55.60;45.04;66.83;;
41518;Laerm;27249;48.094;-1.690;2023-03-12T08:28:49;53.79;43.44;66.40;;
41518;Laerm;27249;48.094;-1.690;2023-03-12T08:31:15;56.20;44.73;67.38;;
41518;Laerm;27249;48.094;-1.690;2023-03-12T08:33:40;53.42;45.01;61.76;;
41518;Laerm;27249;48.094;-1.690;2023-03-12T08:36:07;53.19;43.34;61.12;;
41518;Laerm;27249;48.094;-1.690;2023-03-12T08:38:32;56.15;44.47;69.48;;
41518;Laerm;27249;48.094;-1.690;2023-03-12T08:40:58;56.79;44.07;67.95;;
41518;Laerm;27249;48.094;-1.690;2023-03-12T08:43:23;55.42;43.29;67.33;;
41518;Laerm;27249;48.094;-1.690;2023-03-12T08:45:56;52.78;45.17;60.51;;
41518;Laerm;27249;48.094;-1.690;2023-03-12T08:48:21;55.66;45.20;67.17;;
41518;Laerm;27249;48.094;-1.690;2023-03-12T08:50:46;53.45;44.51;62.29;;
41518;Laerm;27249;48.094;-1.690;2023-03-12T08:53:12;56.61;47.76;64.09;;
41518;Laerm;27249;48.094;-1.690;2023-03-12T08:55:37;56.18;45.54;64.82;;
41518;Laerm;27249;48.094;-1.690;2023-03-12T08:58:02;56.62;45.91;66.22;;
41518;Laerm;27249;48.094;-1.690;2023-03-12T09:03:20;53.51;44.76;61.16;;
41518;Laerm;27249;48.094;-1.690;2023-03-12T09:05:46;54.15;44.62;62.07;;
41518;Laerm;27249;48.094;-1.690;2023-03-12T09:08:11;55.13;43.90;63.61;;
41518;Laerm;27249;48.094;-1.690;2023-03-12T09:10:37;56.07;45.72;66.39;;
41518;Laerm;27249;48.094;-1.690;2023-03-12T09:13:04;54.61;44.51;61.86;;
41518;Laerm;27249;48.094;-1.690;2023-03-12T09:15:29;54.44;44.83;62.76;;
41518;Laerm;27249;48.094;-1.690;2023-03-12T09:17:55;65.62;53.63;72.08;;
41518;Laerm;27249;48.094;-1.690;2023-03-12T09:20:20;64.95;50.31;72.86;;
41518;Laerm;27249;48.094;-1.690;2023-03-12T09:22:46;55.30;45.72;63.64;;
41518;Laerm;27249;48.094;-1.690;2023-03-12T09:25:12;57.14;46.87;72.18;;
41518;Laerm;27249;48.094;-1.690;2023-03-12T09:27:44;55.75;46.80;63.89;;
41518;Laerm;27249;48.094;-1.690;2023-03-12T09:30:11;55.78;44.94;63.43;;
41518;Laerm;27249;48.094;-1.690;2023-03-12T09:32:38;53.56;45.94;65.88;;
41518;Laerm;27249;48.094;-1.690;2023-03-12T09:35:04;55.97;47.50;70.81;;
41518;Laerm;27249;48.094;-1.690;2023-03-12T09:37:29;56.37;47.34;66.07;;
41518;Laerm;27249;48.094;-1.690;2023-03-12T09:39:59;54.74;46.33;62.01;;
41518;Laerm;27249;48.094;-1.690;2023-03-12T09:44:56;56.10;46.62;63.25;;
41518;Laerm;27249;48.094;-1.690;2023-03-12T09:47:32;58.84;46.66;72.56;;
41518;Laerm;27249;48.094;-1.690;2023-03-12T09:50:04;56.00;46.20;65.77;;
41518;Laerm;27249;48.094;-1.690;2023-03-12T09:52:31;55.67;46.84;67.57;;
41518;Laerm;27249;48.094;-1.690;2023-03-12T09:57:23;54.69;45.11;62.06;;
41518;Laerm;27249;48.094;-1.690;2023-03-12T09:59:49;56.55;47.72;64.51;;
41518;Laerm;27249;48.094;-1.690;2023-03-12T10:04:48;55.19;45.96;63.74;;
41518;Laerm;27249;48.094;-1.690;2023-03-12T10:07:18;57.00;45.99;65.41;;
41518;Laerm;27249;48.094;-1.690;2023-03-12T10:14:54;56.27;47.77;67.28;;
41518;Laerm;27249;48.094;-1.690;2023-03-12T10:17:37;56.16;47.40;63.73;;
41518;Laerm;27249;48.094;-1.690;2023-03-12T10:25:21;54.78;48.76;61.27;;
41518;Laerm;27249;48.094;-1.690;2023-03-12T10:27:51;56.34;45.17;64.64;;
41518;Laerm;27249;48.094;-1.690;2023-03-12T10:30:19;57.03;45.20;65.12;;
41518;Laerm;27249;48.094;-1.690;2023-03-12T10:32:48;56.39;48.37;71.31;;
41518;Laerm;27249;48.094;-1.690;2023-03-12T10:35:16;56.58;47.91;63.72;;
41518;Laerm;27249;48.094;-1.690;2023-03-12T10:37:52;55.90;46.78;62.16;;
41518;Laerm;27249;48.094;-1.690;2023-03-12T10:40:20;57.64;45.20;68.81;;
41518;Laerm;27249;48.094;-1.690;2023-03-12T10:42:47;56.78;45.48;66.64;;
41518;Laerm;27249;48.094;-1.690;2023-03-12T10:47:42;55.86;47.50;64.28;;
41518;Laerm;27249;48.094;-1.690;2023-03-12T10:52:42;57.01;49.19;64.19;;
41518;Laerm;27249;48.094;-1.690;2023-03-12T10:55:24;54.75;45.75;63.03;;
41518;Laerm;27249;48.094;-1.690;2023-03-12T10:57:50;54.95;48.48;64.55;;
41518;Laerm;27249;48.094;-1.690;2023-03-12T11:00:27;56.81;51.51;66.54;;
41518;Laerm;27249;48.094;-1.690;2023-03-12T11:03:00;56.43;49.23;65.53;;
41518;Laerm;27249;48.094;-1.690;2023-03-12T11:05:44;56.64;49.28;63.19;;
41518;Laerm;27249;48.094;-1.690;2023-03-12T11:10:47;56.11;45.60;62.74;;
41518;Laerm;27249;48.094;-1.690;2023-03-12T11:13:23;55.91;45.94;65.52;;
41518;Laerm;27249;48.094;-1.690;2023-03-12T11:15:49;55.63;46.62;62.27;;
41518;Laerm;27249;48.094;-1.690;2023-03-12T11:18:19;56.54;46.93;63.20;;
41518;Laerm;27249;48.094;-1.690;2023-03-12T11:20:45;55.58;46.89;62.59;;
41518;Laerm;27249;48.094;-1.690;2023-03-12T11:23:20;56.46;48.22;68.31;;
41518;Laerm;27249;48.094;-1.690;2023-03-12T11:25:53;58.75;47.61;72.89;;
41518;Laerm;27249;48.094;-1.690;2023-03-12T11:28:23;59.24;47.79;76.80;;
41518;Laerm;27249;48.094;-1.690;2023-03-12T11:30:50;56.60;48.02;65.29;;
41518;Laerm;27249;48.094;-1.690;2023-03-12T11:33:16;56.66;46.69;65.80;;
41518;Laerm;27249;48.094;-1.690;2023-03-12T11:35:57;55.57;46.23;68.28;;
41518;Laerm;27249;48.094;-1.690;2023-03-12T11:38:38;57.12;47.93;63.23;;
41518;Laerm;27249;48.094;-1.690;2023-03-12T11:41:23;57.25;47.36;67.82;;
41518;Laerm;27249;48.094;-1.690;2023-03-12T11:44:10;55.25;45.23;65.46;;
41518;Laerm;27249;48.094;-1.690;2023-03-12T11:56:55;57.23;46.87;64.07;;
41518;Laerm;27249;48.094;-1.690;2023-03-12T12:02:40;57.30;47.26;66.14;;
41518;Laerm;27249;48.094;-1.690;2023-03-12T12:10:07;56.85;46.43;68.44;;
41518;Laerm;27249;48.094;-1.690;2023-03-12T12:15:13;56.41;43.90;69.24;;
41518;Laerm;27249;48.094;-1.690;2023-03-12T12:22:56;54.26;45.28;65.92;;
41518;Laerm;27249;48.094;-1.690;2023-03-12T12:34:37;54.53;45.14;64.03;;
41518;Laerm;27249;48.094;-1.690;2023-03-12T12:36:40;53.44;44.65;65.87;;
41518;Laerm;27249;48.094;-1.690;2023-03-12T12:39:15;55.67;46.07;64.77;;
41518;Laerm;27249;48.094;-1.690;2023-03-12T12:41:43;56.65;44.97;69.50;;
41518;Laerm;27249;48.094;-1.690;2023-03-12T12:44:26;56.11;45.36;64.61;;
41518;Laerm;27249;48.094;-1.690;2023-03-12T12:46:57;57.02;46.43;69.15;;
41518;Laerm;27249;48.094;-1.690;2023-03-12T12:49:28;61.50;49.08;78.82;;
41518;Laerm;27249;48.094;-1.690;2023-03-12T12:51:56;53.94;44.83;66.16;;
41518;Laerm;27249;48.094;-1.690;2023-03-12T12:54:34;53.97;45.17;64.61;;
41518;Laerm;27249;48.094;-1.690;2023-03-12T12:57:13;57.82;46.59;76.34;;
41518;Laerm;27249;48.094;-1.690;2023-03-12T12:59:45;57.20;47.02;75.63;;
41518;Laerm;27249;48.094;-1.690;2023-03-12T13:02:22;57.69;47.98;82.26;;
41518;Laerm;27249;48.094;-1.690;2023-03-12T13:04:50;55.30;46.05;71.03;;
41518;Laerm;27249;48.094;-1.690;2023-03-12T13:09:45;55.83;46.87;71.81;;
41518;Laerm;27249;48.094;-1.690;2023-03-12T13:14:40;55.46;46.82;63.34;;
41518;Laerm;27249;48.094;-1.690;2023-03-12T13:17:07;57.15;48.21;65.02;;
41518;Laerm;27249;48.094;-1.690;2023-03-12T13:19:33;55.83;48.51;63.91;;
41518;Laerm;27249;48.094;-1.690;2023-03-12T13:22:16;56.70;47.20;67.33;;
41518;Laerm;27249;48.094;-1.690;2023-03-12T13:27:35;57.12;47.16;69.65;;
41518;Laerm;27249;48.094;-1.690;2023-03-12T13:45:32;56.27;48.08;66.07;;
41518;Laerm;27249;48.094;-1.690;2023-03-12T13:48:00;53.69;44.69;67.92;;
41518;Laerm;27249;48.094;-1.690;2023-03-12T13:50:26;55.05;44.87;63.65;;
41518;Laerm;27249;48.094;-1.690;2023-03-12T13:55:27;56.85;49.43;68.41;;
41518;Laerm;27249;48.094;-1.690;2023-03-12T13:57:56;55.85;47.04;64.90;;
41518;Laerm;27249;48.094;-1.690;2023-03-12T14:03:17;56.73;46.52;63.99;;
41518;Laerm;27249;48.094;-1.690;2023-03-12T14:08:21;54.58;46.57;62.06;;
41518;Laerm;27249;48.094;-1.690;2023-03-12T14:10:56;57.06;47.93;66.01;;
41518;Laerm;27249;48.094;-1.690;2023-03-12T14:18:28;54.98;47.54;71.70;;
41518;Laerm;27249;48.094;-1.690;2023-03-12T14:21:01;54.45;46.57;63.55;;
41518;Laerm;27249;48.094;-1.690;2023-03-12T14:23:32;54.63;45.72;78.69;;
41518;Laerm;27249;48.094;-1.690;2023-03-12T14:26:00;55.20;47.04;73.26;;
41518;Laerm;27249;48.094;-1.690;2023-03-12T14:28:26;55.36;45.04;67.32;;
41518;Laerm;27249;48.094;-1.690;2023-03-12T14:33:16;56.67;47.86;73.72;;
41518;Laerm;27249;48.094;-1.690;2023-03-12T14:35:43;57.57;51.09;68.91;;
41518;Laerm;27249;48.094;-1.690;2023-03-12T14:41:00;54.91;47.81;65.47;;
41518;Laerm;27249;48.094;-1.690;2023-03-12T14:43:28;55.37;47.83;64.41;;
41518;Laerm;27249;48.094;-1.690;2023-03-12T14:46:03;54.84;46.40;65.04;;
41518;Laerm;27249;48.094;-1.690;2023-03-12T14:48:30;55.87;47.63;68.10;;
41518;Laerm;27249;48.094;-1.690;2023-03-12T14:50:56;54.47;46.89;60.72;;
41518;Laerm;27249;48.094;-1.690;2023-03-12T14:53:35;55.49;48.90;67.57;;
41518;Laerm;27249;48.094;-1.690;2023-03-12T14:58:34;55.41;47.79;67.26;;
41518;Laerm;27249;48.094;-1.690;2023-03-12T15:01:06;56.93;50.43;65.45;;
41518;Laerm;27249;48.094;-1.690;2023-03-12T15:03:32;56.04;46.55;67.01;;
41518;Laerm;27249;48.094;-1.690;2023-03-12T15:06:00;56.08;48.16;63.12;;
41518;Laerm;27249;48.094;-1.690;2023-03-12T15:08:26;56.11;47.76;64.74;;
41518;Laerm;27249;48.094;-1.690;2023-03-12T15:10:53;56.50;47.54;68.35;;
41518;Laerm;27249;48.094;-1.690;2023-03-12T15:13:19;57.99;50.47;66.50;;
41518;Laerm;27249;48.094;-1.690;2023-03-12T15:18:20;56.25;49.93;66.24;;
41518;Laerm;27249;48.094;-1.690;2023-03-12T15:20:47;58.01;48.07;66.00;;
41518;Laerm;27249;48.094;-1.690;2023-03-12T15:23:13;57.59;46.87;71.45;;
41518;Laerm;27249;48.094;-1.690;2023-03-12T15:25:39;57.98;50.34;66.22;;
41518;Laerm;27249;48.094;-1.690;2023-03-12T15:28:06;58.76;49.40;68.41;;
41518;Laerm;27249;48.094;-1.690;2023-03-12T15:30:32;58.78;48.95;67.59;;
41518;Laerm;27249;48.094;-1.690;2023-03-12T15:35:33;59.68;49.56;66.41;;
41518;Laerm;27249;48.094;-1.690;2023-03-12T15:37:58;59.38;50.57;69.93;;
41518;Laerm;27249;48.094;-1.690;2023-03-12T15:40:25;59.61;51.92;68.67;;
41518;Laerm;27249;48.094;-1.690;2023-03-12T15:42:51;59.29;49.16;66.55;;
41518;Laerm;27249;48.094;-1.690;2023-03-12T15:45:26;58.69;49.93;66.14;;
41518;Laerm;27249;48.094;-1.690;2023-03-12T15:47:55;59.67;53.43;67.75;;
41518;Laerm;27249;48.094;-1.690;2023-03-12T15:56:21;59.88;49.85;66.86;;
41518;Laerm;27249;48.094;-1.690;2023-03-12T15:58:51;58.49;45.27;65.94;;
41518;Laerm;27249;48.094;-1.690;2023-03-12T16:01:22;60.32;50.73;68.45;;